Time;durP1;ratioP1;P1;durP2;ratioP2;P2;SDS_P1;SDS_P2;PMS_P1;PMS_P2;Temp;Humidity;BMP_temperature;BMP_pressure;BME280_temperature;BME280_humidity;BME280_pressure;Samples;Min_cycle;Max_cycle;Signal;HPM_P1;HPM_P2
2022/06/12 00:02:18;;;;;;;11.10;3.23;;;14.80;99.90;;;;;;5068086;28;20244;-84
2022/06/12 00:04:43;;;;;;;5.33;2.73;;;14.80;99.90;;;;;;5067963;28;20187;-84
2022/06/12 00:07:09;;;;;;;5.77;2.80;;;14.80;99.90;;;;;;5068224;28;20231;-85
2022/06/12 00:09:35;;;;;;;8.13;2.87;;;14.80;99.90;;;;;;5068290;28;20165;-84
2022/06/12 00:12:00;;;;;;;11.90;2.60;;;14.80;99.90;;;;;;5068003;28;20565;-85
2022/06/12 00:14:26;;;;;;;11.47;2.80;;;14.80;99.90;;;;;;5036518;28;20193;-85
2022/06/12 00:16:54;;;;;;;8.17;2.20;;;14.70;99.90;;;;;;5047869;28;20178;-84
2022/06/12 00:19:21;;;;;;;7.77;2.80;;;14.70;99.90;;;;;;5048185;28;20412;-84
2022/06/12 00:21:47;;;;;;;3.73;2.10;;;14.60;99.90;;;;;;5047937;28;20857;-84
2022/06/12 00:24:16;;;;;;;9.10;2.10;;;14.60;99.90;;;;;;5048118;28;20416;-85
2022/06/12 00:26:49;;;;;;;5.87;2.90;;;14.60;99.90;;;;;;5030105;28;20519;-85
2022/06/12 00:29:19;;;;;;;5.73;3.13;;;14.60;99.90;;;;;;5048456;28;20408;-84
2022/06/12 00:31:54;;;;;;;5.93;2.97;;;14.50;99.90;;;;;;5048100;28;20416;-84
2022/06/12 00:34:23;;;;;;;6.43;2.33;;;14.50;99.90;;;;;;5049521;28;20510;-84
2022/06/12 00:36:49;;;;;;;5.63;2.13;;;14.50;99.90;;;;;;5051619;28;20430;-84
2022/06/12 00:39:16;;;;;;;2.77;1.97;;;14.40;99.90;;;;;;5052412;28;20413;-84
2022/06/12 00:41:43;;;;;;;4.60;2.27;;;14.40;99.90;;;;;;5051738;28;20302;-84
2022/06/12 00:44:15;;;;;;;5.37;2.83;;;14.30;99.90;;;;;;5051882;28;20440;-84
2022/06/12 00:46:46;;;;;;;9.33;2.90;;;14.30;99.90;;;;;;5051683;28;20408;-84
2022/06/12 00:49:33;;;;;;;5.80;2.57;;;14.30;99.90;;;;;;5052178;28;20419;-85
2022/06/12 00:52:02;;;;;;;8.90;2.70;;;14.20;99.90;;;;;;5058984;28;20419;-84
2022/06/12 00:54:29;;;;;;;4.20;2.70;;;14.20;99.90;;;;;;5072131;28;20419;-85
2022/06/12 00:56:57;;;;;;;6.90;3.10;;;14.20;99.90;;;;;;5071835;28;20451;-84
2022/06/12 00:59:37;;;;;;;6.90;3.80;;;14.20;99.90;;;;;;5071906;28;20836;-85
2022/06/12 01:02:06;;;;;;;7.03;3.60;;;14.10;99.90;;;;;;5071528;28;20758;-84
2022/06/12 01:07:21;;;;;;;5.90;2.60;;;14.00;99.90;;;;;;5071467;28;20411;-84
2022/06/12 01:09:50;;;;;;;9.00;3.60;;;14.00;99.90;;;;;;5071440;28;20695;-84
2022/06/12 01:12:20;;;;;;;4.03;2.13;;;14.10;99.90;;;;;;5071354;28;20411;-84
2022/06/12 01:14:57;;;;;;;15.23;2.53;;;14.10;99.90;;;;;;5055018;28;20432;-84
2022/06/12 01:17:26;;;;;;;6.30;2.50;;;14.10;99.90;;;;;;5051201;28;20630;-84
2022/06/12 01:19:59;;;;;;;6.70;2.07;;;14.10;99.90;;;;;;5051657;28;20420;-84
2022/06/12 01:22:53;;;;;;;7.53;2.43;;;14.10;99.90;;;;;;5051490;28;20503;-84
2022/06/12 01:25:37;;;;;;;4.37;1.70;;;14.10;99.90;;;;;;5051721;28;20408;-84
2022/06/12 01:28:12;;;;;;;6.37;2.47;;;14.00;99.90;;;;;;5051158;28;20408;-84
2022/06/12 01:31:10;;;;;;;3.40;2.07;;;14.00;99.90;;;;;;5050999;28;20469;-84
2022/06/12 01:34:00;;;;;;;5.07;2.00;;;13.90;99.90;;;;;;5033221;28;20424;-85
2022/06/12 01:36:25;;;;;;;6.03;2.60;;;13.90;99.90;;;;;;5051055;28;20426;-84
2022/06/12 01:39:12;;;;;;;7.97;3.27;;;13.90;99.90;;;;;;5050319;28;20924;-85
2022/06/12 01:41:49;;;;;;;6.53;2.53;;;13.80;99.90;;;;;;5050849;28;20267;-84
2022/06/12 01:44:30;;;;;;;8.20;3.90;;;13.80;99.90;;;;;;5050968;28;20946;-84
2022/06/12 01:47:18;;;;;;;5.00;2.37;;;13.80;99.90;;;;;;5051056;28;20408;-83
2022/06/12 01:49:48;;;;;;;6.83;3.00;;;13.80;99.90;;;;;;5051175;28;20417;-84
2022/06/12 01:52:21;;;;;;;6.47;2.63;;;13.80;99.90;;;;;;5059616;28;20423;-84
2022/06/12 01:55:13;;;;;;;3.80;2.43;;;13.70;99.90;;;;;;5070922;28;20800;-84
2022/06/12 01:57:46;;;;;;;2.70;1.93;;;13.60;99.90;;;;;;5070343;28;20403;-85
2022/06/12 02:00:21;;;;;;;8.90;2.70;;;13.60;99.90;;;;;;5071134;28;20486;-84
2022/06/12 02:03:12;;;;;;;4.30;2.60;;;13.60;99.90;;;;;;5070212;28;20458;-84
2022/06/12 02:05:37;;;;;;;4.27;2.10;;;13.50;99.90;;;;;;5052145;28;20778;-84
2022/06/12 02:08:03;;;;;;;7.57;3.00;;;13.50;99.90;;;;;;5070233;28;20420;-84
2022/06/12 02:10:44;;;;;;;7.37;3.20;;;13.50;99.90;;;;;;5070561;28;20169;-84
2022/06/12 02:13:18;;;;;;;5.60;2.73;;;13.50;99.90;;;;;;5067072;28;20286;-84
2022/06/12 02:16:10;;;;;;;5.70;2.60;;;13.50;99.90;;;;;;5050216;28;20422;-84
2022/06/12 02:18:54;;;;;;;3.10;2.17;;;13.50;99.90;;;;;;5031920;28;20432;-84
2022/06/12 02:21:28;;;;;;;4.70;2.57;;;13.40;99.90;;;;;;5032188;28;20808;-84
2022/06/12 02:24:15;;;;;;;9.13;2.90;;;13.40;99.90;;;;;;5049857;28;20956;-84
2022/06/12 02:27:00;;;;;;;5.33;2.60;;;13.40;99.90;;;;;;5049872;28;20407;-84
2022/06/12 02:29:36;;;;;;;6.10;3.10;;;13.40;99.90;;;;;;5050024;28;20419;-84
2022/06/12 02:32:07;;;;;;;5.00;2.67;;;13.30;99.90;;;;;;5049902;28;20923;-84
2022/06/12 02:34:38;;;;;;;3.30;2.10;;;13.30;99.90;;;;;;5049801;28;20956;-85
2022/06/12 02:37:27;;;;;;;5.07;2.70;;;13.30;99.90;;;;;;5049807;28;20424;-84
2022/06/12 02:40:00;;;;;;;7.20;3.40;;;13.30;99.90;;;;;;5050366;28;20491;-84
2022/06/12 02:42:30;;;;;;;9.33;3.23;;;13.30;99.90;;;;;;5049711;28;21097;-84
2022/06/12 02:45:04;;;;;;;8.30;3.20;;;13.30;99.90;;;;;;5049772;28;20452;-84
2022/06/12 02:47:32;;;;;;;4.73;2.70;;;13.20;99.90;;;;;;5049587;28;20869;-84
2022/06/12 02:49:59;;;;;;;4.07;2.67;;;13.20;99.90;;;;;;5050101;28;20416;-84
2022/06/12 02:52:53;;;;;;;4.60;2.80;;;13.10;99.90;;;;;;5059783;28;20430;-84
2022/06/12 02:55:46;;;;;;;4.70;3.23;;;13.10;99.90;;;;;;5069731;28;20778;-85
2022/06/12 02:58:32;;;;;;;5.50;3.63;;;13.10;99.90;;;;;;5068338;28;20453;-84
2022/06/12 03:01:20;;;;;;;6.77;2.63;;;13.20;99.90;;;;;;5069386;28;20392;-84
2022/06/12 03:03:52;;;;;;;6.00;2.83;;;13.10;99.90;;;;;;5068800;28;20426;-84
2022/06/12 03:06:19;;;;;;;3.93;2.60;;;13.10;99.90;;;;;;5069135;28;20418;-84
2022/06/12 03:08:50;;;;;;;9.77;2.53;;;13.10;99.90;;;;;;5069109;28;20411;-84
2022/06/12 03:11:23;;;;;;;3.90;2.50;;;13.10;99.90;;;;;;5069260;28;20416;-84
2022/06/12 03:13:51;;;;;;;9.10;3.20;;;13.10;99.90;;;;;;5060253;28;20424;-85
2022/06/12 03:16:23;;;;;;;11.53;3.00;;;13.00;99.90;;;;;;5049439;28;20788;-84
2022/06/12 03:18:56;;;;;;;5.53;2.97;;;13.00;99.90;;;;;;5049032;28;20396;-84
2022/06/12 03:22:09;;;;;;;4.57;2.63;;;13.00;99.90;;;;;;5049126;28;20455;-84
2022/06/12 03:24:57;;;;;;;9.20;3.13;;;13.00;99.90;;;;;;5013527;28;20425;-84
2022/06/12 03:27:44;;;;;;;6.13;2.40;;;13.00;99.90;;;;;;5048810;28;20497;-84
2022/06/12 03:30:13;;;;;;;4.80;2.70;;;13.00;99.90;;;;;;5049594;28;20413;-84
2022/06/12 03:32:53;;;;;;;6.23;3.43;;;12.90;99.90;;;;;;5048426;28;20423;-84
2022/06/12 03:35:36;;;;;;;4.20;3.20;;;12.90;99.90;;;;;;5048781;28;20412;-84
2022/06/12 03:38:16;;;;;;;5.60;3.40;;;12.90;99.90;;;;;;5048905;28;20447;-84
2022/06/12 03:41:05;;;;;;;5.40;3.27;;;12.90;99.90;;;;;;5048724;28;20404;-84
2022/06/12 03:43:52;;;;;;;5.50;2.73;;;12.90;99.90;;;;;;5048348;28;20474;-84
2022/06/12 03:46:43;;;;;;;6.50;2.90;;;12.90;99.90;;;;;;5048919;28;20420;-84
2022/06/12 03:49:21;;;;;;;5.50;3.13;;;12.90;99.90;;;;;;4994966;28;20432;-84
2022/06/12 03:51:57;;;;;;;4.33;2.83;;;12.90;99.90;;;;;;5053698;28;20462;-84
2022/06/12 03:54:30;;;;;;;3.40;2.30;;;13.00;99.90;;;;;;5050646;28;20469;-84
2022/06/12 04:00:09;;;;;;;3.30;2.53;;;13.00;99.90;;;;;;5068406;28;20413;-84
2022/06/12 04:02:36;;;;;;;4.43;2.80;;;12.90;99.90;;;;;;5068103;28;20984;-84
2022/06/12 04:05:04;;;;;;;4.73;2.90;;;12.90;99.90;;;;;;5067921;28;20451;-85
2022/06/12 04:07:33;;;;;;;6.00;2.47;;;12.90;99.90;;;;;;5067680;28;20423;-85
2022/06/12 04:10:02;;;;;;;4.00;2.83;;;13.00;99.90;;;;;;5067581;28;20426;-84
2022/06/12 04:12:32;;;;;;;6.23;3.17;;;13.00;99.90;;;;;;5068186;28;20415;-84
2022/06/12 04:15:21;;;;;;;6.10;2.87;;;13.00;99.90;;;;;;5050115;28;20435;-85
2022/06/12 04:17:46;;;;;;;11.53;3.70;;;13.00;99.90;;;;;;5048191;28;20416;-85
2022/06/12 04:20:23;;;;;;;7.33;3.07;;;13.10;99.90;;;;;;5048441;28;20447;-84
2022/06/12 04:23:06;;;;;;;5.30;2.77;;;13.10;99.90;;;;;;5048219;28;20562;-85
2022/06/12 04:25:53;;;;;;;7.90;2.90;;;13.20;99.90;;;;;;5030494;28;20506;-85
2022/06/12 04:28:25;;;;;;;6.17;3.40;;;13.20;99.90;;;;;;5047820;28;20956;-84
2022/06/12 04:30:51;;;;;;;6.37;3.57;;;13.20;99.90;;;;;;5048571;28;20416;-85
2022/06/12 04:33:48;;;;;;;5.50;2.77;;;13.30;99.90;;;;;;5047941;28;20412;-85
2022/06/12 04:36:14;;;;;;;8.73;3.63;;;13.30;99.90;;;;;;5047899;28;20416;-85
2022/06/12 04:38:40;;;;;;;6.80;3.70;;;13.40;99.90;;;;;;5047764;28;20763;-84
2022/06/12 04:41:06;;;;;;;5.73;3.10;;;13.40;99.90;;;;;;5047905;28;20939;-84
2022/06/12 04:43:33;;;;;;;22.07;2.73;;;13.50;99.90;;;;;;5030243;28;20209;-84
2022/06/12 04:45:59;;;;;;;5.47;3.03;;;13.50;99.90;;;;;;5048264;28;20182;-85
2022/06/12 04:48:39;;;;;;;5.50;2.93;;;13.60;99.90;;;;;;5048031;28;20451;-85
2022/06/12 04:51:06;;;;;;;4.40;2.80;;;13.70;99.90;;;;;;5047902;28;20404;-85
2022/06/12 04:53:32;;;;;;;7.03;3.07;;;13.80;99.90;;;;;;5067453;28;20828;-85
2022/06/12 04:55:58;;;;;;;7.77;3.33;;;13.80;99.90;;;;;;5068009;28;20437;-85
2022/06/12 04:58:24;;;;;;;6.63;2.43;;;13.90;99.90;;;;;;5067839;28;20455;-85
2022/06/12 05:00:50;;;;;;;4.57;3.00;;;13.90;99.90;;;;;;5068199;28;20177;-85
2022/06/12 05:03:16;;;;;;;5.77;3.40;;;14.10;99.90;;;;;;5067583;28;20189;-85
2022/06/12 05:05:43;;;;;;;5.77;3.07;;;14.20;99.90;;;;;;5049191;28;20423;-85
2022/06/12 05:08:08;;;;;;;5.50;3.47;;;14.30;99.90;;;;;;5067774;28;20656;-86
2022/06/12 05:10:36;;;;;;;3.83;2.23;;;14.30;99.90;;;;;;5067813;28;20439;-85
2022/06/12 05:13:02;;;;;;;4.87;3.37;;;14.40;99.90;;;;;;5065920;28;20891;-86
2022/06/12 05:15:28;;;;;;;5.60;3.43;;;14.50;99.90;;;;;;5029854;28;20506;-86
2022/06/12 05:17:54;;;;;;;4.73;3.00;;;14.60;99.90;;;;;;5047518;28;20489;-86
2022/06/12 05:20:24;;;;;;;3.87;2.20;;;14.70;99.90;;;;;;5049232;28;20444;-86
2022/06/12 05:22:50;;;;;;;4.10;2.10;;;14.80;99.90;;;;;;5051529;28;20277;-86
2022/06/12 05:25:17;;;;;;;4.60;2.80;;;14.90;99.90;;;;;;5051270;28;20851;-85
2022/06/12 05:27:45;;;;;;;3.67;2.73;;;15.00;99.90;;;;;;5051461;28;20456;-86
2022/06/12 05:30:20;;;;;;;4.83;3.00;;;15.10;99.90;;;;;;5051841;28;20501;-86
2022/06/12 05:32:47;;;;;;;5.20;2.57;;;15.20;99.90;;;;;;5051781;28;20404;-86
2022/06/12 05:35:14;;;;;;;6.60;3.23;;;15.30;99.90;;;;;;5051284;28;20415;-86
2022/06/12 05:37:40;;;;;;;5.60;3.00;;;15.40;99.90;;;;;;5033282;28;20966;-87
2022/06/12 05:40:12;;;;;;;4.67;2.80;;;15.50;99.90;;;;;;5051344;28;20424;-87
2022/06/12 05:42:38;;;;;;;7.57;2.63;;;15.60;99.90;;;;;;5050867;28;20224;-87
2022/06/12 05:45:15;;;;;;;10.30;2.70;;;15.70;99.90;;;;;;5033289;28;20428;-87
2022/06/12 05:47:57;;;;;;;5.43;3.20;;;15.80;99.90;;;;;;5050890;28;21065;-87
2022/06/12 05:50:26;;;;;;;4.83;2.67;;;15.90;99.90;;;;;;5033277;28;20494;-87
2022/06/12 05:52:52;;;;;;;4.30;2.80;;;16.00;99.90;;;;;;5065339;28;20934;-87
2022/06/12 05:55:18;;;;;;;4.23;2.83;;;16.10;99.90;;;;;;5053039;28;20427;-87
2022/06/12 05:57:43;;;;;;;4.90;3.00;;;16.20;99.90;;;;;;5071280;28;20185;-87
2022/06/12 06:00:15;;;;;;;6.10;2.37;;;16.30;99.90;;;;;;5053479;28;20653;-87
2022/06/12 06:02:44;;;;;;;9.20;2.57;;;16.40;99.90;;;;;;5053273;28;20255;-87
2022/06/12 06:05:11;;;;;;;3.83;2.53;;;16.50;99.90;;;;;;5052538;28;20868;-88
2022/06/12 06:07:37;;;;;;;7.00;2.30;;;16.60;99.90;;;;;;5052645;28;20419;-87
2022/06/12 06:10:05;;;;;;;3.97;2.23;;;16.80;99.90;;;;;;5071164;28;20492;-87
2022/06/12 06:12:30;;;;;;;4.83;2.00;;;17.00;99.90;;;;;;5053236;28;20578;-87
2022/06/12 06:14:56;;;;;;;3.83;2.23;;;17.30;99.90;;;;;;5052901;28;20470;-87
2022/06/12 06:17:22;;;;;;;6.30;2.30;;;17.40;99.90;;;;;;5050730;28;20546;-88
2022/06/12 06:19:47;;;;;;;5.20;2.20;;;17.50;99.90;;;;;;5032804;28;20224;-87
2022/06/12 06:22:16;;;;;;;4.13;1.87;;;17.60;99.90;;;;;;5032599;28;20705;-87
2022/06/12 06:24:42;;;;;;;4.10;1.97;;;17.70;99.90;;;;;;5050860;28;20207;-87
2022/06/12 06:27:09;;;;;;;9.43;2.73;;;17.80;99.90;;;;;;5050509;28;20424;-87
2022/06/12 06:29:36;;;;;;;10.30;2.10;;;17.90;99.90;;;;;;5050357;28;20499;-87
2022/06/12 06:32:02;;;;;;;3.30;1.80;;;18.00;99.90;;;;;;5049297;28;20416;-87
2022/06/12 06:34:28;;;;;;;3.10;1.77;;;18.10;99.90;;;;;;5032403;28;20625;-87
2022/06/12 06:36:53;;;;;;;4.07;1.80;;;18.20;99.90;;;;;;5049899;28;20420;-86
2022/06/12 06:39:19;;;;;;;2.97;2.10;;;18.40;99.90;;;;;;5032331;28;20188;-87
2022/06/12 06:41:45;;;;;;;8.13;2.37;;;18.50;99.90;;;;;;5049766;28;20240;-88
2022/06/12 06:46:55;;;;;;;10.07;3.20;;;18.60;99.90;;;;;;5050507;28;20173;-88
2022/06/12 06:49:21;;;;;;;5.53;2.87;;;18.70;99.90;;;;;;5050270;28;20412;-89
2022/06/12 06:51:47;;;;;;;4.73;2.97;;;18.70;99.90;;;;;;5038079;28;20177;-88
2022/06/12 06:54:12;;;;;;;4.13;1.70;;;18.80;99.90;;;;;;5052334;28;20446;-88
2022/06/12 06:56:38;;;;;;;4.80;1.97;;;18.90;99.90;;;;;;5051998;28;20219;-89
2022/06/12 06:59:04;;;;;;;4.83;2.30;;;19.00;99.90;;;;;;5052650;28;20216;-88
2022/06/12 07:01:29;;;;;;;3.77;1.80;;;19.20;99.90;;;;;;5051880;28;20755;-88
2022/06/12 07:03:55;;;;;;;7.43;2.03;;;19.40;99.90;;;;;;5051318;28;20195;-88
2022/06/12 07:06:22;;;;;;;4.70;1.63;;;19.50;99.90;;;;;;5051768;28;20581;-88
2022/06/12 07:08:47;;;;;;;3.83;1.83;;;19.70;99.90;;;;;;5051601;28;20181;-88
2022/06/12 07:11:13;;;;;;;3.63;2.33;;;20.00;99.90;;;;;;5052240;28;20433;-88
2022/06/12 07:13:38;;;;;;;5.10;2.10;;;20.30;99.90;;;;;;5062739;28;20181;-89
2022/06/12 07:16:05;;;;;;;2.87;1.70;;;20.50;99.90;;;;;;5031745;28;20733;-88
2022/06/12 07:18:30;;;;;;;3.20;1.73;;;20.70;99.90;;;;;;5031341;28;20626;-88
2022/06/12 07:21:01;;;;;;;3.73;2.20;;;21.00;99.60;;;;;;5031747;28;20423;-89
2022/06/12 07:23:27;;;;;;;3.13;1.27;;;21.30;98.60;;;;;;5031665;28;20515;-88
2022/06/12 07:25:57;;;;;;;3.80;1.50;;;21.60;97.40;;;;;;5031895;28;20427;-90
2022/06/12 07:28:24;;;;;;;2.30;1.30;;;22.00;96.20;;;;;;5031981;28;20522;-88
2022/06/12 07:30:50;;;;;;;4.40;2.10;;;22.30;95.90;;;;;;5031468;28;20455;-89
2022/06/12 07:33:17;;;;;;;5.23;2.30;;;22.80;94.40;;;;;;5031871;28;20434;-89
2022/06/12 07:35:44;;;;;;;3.00;1.77;;;23.00;94.70;;;;;;5032000;28;20431;-89
2022/06/12 07:38:12;;;;;;;6.17;1.93;;;23.30;94.40;;;;;;5031729;28;20420;-88
2022/06/12 07:40:43;;;;;;;3.97;1.97;;;24.00;93.70;;;;;;5031505;28;20714;-89
2022/06/12 07:43:09;;;;;;;2.33;1.33;;;25.20;91.80;;;;;;5030743;28;20995;-90
2022/06/12 07:45:37;;;;;;;2.97;1.90;;;26.70;90.20;;;;;;5031723;28;20188;-87
2022/06/12 07:48:03;;;;;;;4.40;2.25;;;28.10;82.60;;;;;;5031353;28;20299;-87
2022/06/12 07:50:29;;;;;;;7.72;1.77;;;28.40;80.50;;;;;;5049260;28;20692;-87
2022/06/12 07:52:55;;;;;;;2.60;1.30;;;28.60;75.60;;;;;;5045448;28;20727;-87
2022/06/12 07:55:22;;;;;;;3.15;1.48;;;28.80;77.50;;;;;;5050712;28;20263;-87
2022/06/12 07:57:48;;;;;;;3.45;1.83;;;30.00;73.40;;;;;;5069008;28;20227;-88
2022/06/12 08:00:15;;;;;;;4.68;1.50;;;30.50;71.10;;;;;;5050895;28;20371;-87
2022/06/12 08:02:42;;;;;;;6.82;2.17;;;30.70;69.70;;;;;;5051039;28;20577;-87
2022/06/12 08:05:08;;;;;;;2.80;1.48;;;30.40;70.90;;;;;;5068719;28;20651;-86
2022/06/12 08:07:34;;;;;;;9.10;2.33;;;31.00;67.60;;;;;;5050246;28;20188;-88
2022/06/12 08:10:03;;;;;;;3.13;1.60;;;30.80;68.10;;;;;;5068280;28;20345;-86
2022/06/12 08:12:34;;;;;;;8.40;2.17;;;30.70;68.40;;;;;;5050022;28;20636;-87
2022/06/12 08:15:00;;;;;;;2.78;1.55;;;30.40;71.00;;;;;;5032838;28;20575;-87
2022/06/12 08:17:25;;;;;;;3.20;1.70;;;30.70;69.80;;;;;;5030839;28;20300;-88
2022/06/12 08:22:35;;;;;;;3.15;1.70;;;31.40;65.90;;;;;;5048880;28;20200;-87
2022/06/12 08:25:01;;;;;;;16.95;2.47;;;31.70;66.50;;;;;;5051391;28;20270;-86
2022/06/12 08:27:27;;;;;;;4.05;1.75;;;31.40;66.90;;;;;;5030580;28;20659;-87
2022/06/12 08:29:53;;;;;;;5.80;1.88;;;31.40;66.80;;;;;;5039704;28;20180;-86
2022/06/12 08:32:21;;;;;;;4.63;1.70;;;31.60;67.10;;;;;;5060119;28;20184;-86
2022/06/12 08:34:55;;;;;;;2.95;1.88;;;31.40;67.40;;;;;;5068808;28;20446;-86
2022/06/12 08:37:27;;;;;;;2.75;1.33;;;31.30;62.30;;;;;;5032498;28;20633;-85
2022/06/12 08:39:53;;;;;;;4.88;2.00;;;31.00;61.20;;;;;;5030492;28;20387;-85
2022/06/12 08:42:24;;;;;;;6.00;2.00;;;31.60;62.30;;;;;;5030164;28;20780;-85
2022/06/12 08:45:10;;;;;;;2.33;1.33;;;31.20;67.10;;;;;;5030352;28;20510;-86
2022/06/12 08:47:45;;;;;;;4.82;1.77;;;31.00;62.70;;;;;;5048165;28;20174;-85
2022/06/12 08:50:35;;;;;;;2.47;1.55;;;31.50;62.00;;;;;;5048479;28;20548;-85
2022/06/12 08:53:10;;;;;;;5.93;1.67;;;32.20;60.60;;;;;;5063834;28;20208;-85
2022/06/12 08:55:57;;;;;;;3.10;1.38;;;31.70;61.20;;;;;;5051641;28;20203;-86
2022/06/12 08:58:46;;;;;;;5.78;1.50;;;30.80;62.10;;;;;;5070609;28;20201;-85
2022/06/12 09:01:12;;;;;;;3.67;1.67;;;31.40;60.60;;;;;;5052478;28;20162;-85
2022/06/12 09:03:46;;;;;;;6.00;1.83;;;31.40;61.00;;;;;;5051407;28;20196;-85
2022/06/12 09:06:17;;;;;;;2.72;1.63;;;31.40;60.50;;;;;;5034327;28;20173;-84
2022/06/12 09:08:55;;;;;;;3.83;1.77;;;30.80;61.80;;;;;;5051674;28;20211;-85
2022/06/12 09:11:35;;;;;;;2.10;1.25;;;30.80;63.80;;;;;;5051976;28;20200;-85
2022/06/12 09:14:32;;;;;;;2.53;1.60;;;30.70;65.60;;;;;;5051474;28;20528;-85
2022/06/12 09:17:01;;;;;;;7.57;2.25;;;31.00;65.90;;;;;;5007197;28;20189;-85
2022/06/12 09:19:32;;;;;;;5.97;2.42;;;31.00;66.60;;;;;;5034652;28;20205;-85
2022/06/12 09:22:13;;;;;;;2.88;1.70;;;30.90;64.10;;;;;;5051527;28;20220;-86
2022/06/12 09:24:46;;;;;;;2.78;1.35;;;30.20;65.30;;;;;;5051645;28;20184;-85
2022/06/12 09:27:16;;;;;;;4.40;1.50;;;30.80;62.50;;;;;;5051349;28;20545;-85
2022/06/12 09:30:01;;;;;;;5.60;1.52;;;31.00;61.70;;;;;;5051417;28;20185;-85
2022/06/12 09:32:54;;;;;;;3.38;1.70;;;30.80;62.70;;;;;;5051302;28;20200;-85
2022/06/12 09:35:41;;;;;;;4.97;2.00;;;31.00;60.00;;;;;;5051848;28;20617;-84
2022/06/12 09:38:22;;;;;;;3.70;1.50;;;30.70;62.70;;;;;;5052172;28;20276;-85
2022/06/12 09:40:59;;;;;;;4.93;1.58;;;30.70;63.30;;;;;;5034755;28;20173;-85
2022/06/12 09:43:36;;;;;;;4.75;1.75;;;31.10;61.20;;;;;;5052363;28;20193;-84
2022/06/12 09:46:10;;;;;;;3.53;1.60;;;31.30;59.90;;;;;;5033961;28;20181;-84
2022/06/12 09:49:28;;;;;;;8.98;1.50;;;31.00;59.70;;;;;;5033467;28;20199;-84
2022/06/12 09:52:16;;;;;;;3.30;1.63;;;31.20;58.60;;;;;;4969915;28;20220;-84
2022/06/12 09:54:51;;;;;;;2.88;1.58;;;30.30;63.70;;;;;;5047928;28;20303;-85
2022/06/12 09:57:44;;;;;;;5.82;1.52;;;30.30;59.90;;;;;;5050703;28;20161;-84
2022/06/12 10:00:26;;;;;;;6.35;1.90;;;30.60;59.60;;;;;;5031996;28;20181;-84
2022/06/12 10:02:59;;;;;;;3.75;1.83;;;30.00;61.50;;;;;;5033465;28;20188;-85
2022/06/12 10:05:35;;;;;;;2.03;1.17;;;30.20;63.60;;;;;;5050294;28;20165;-85
2022/06/12 10:08:11;;;;;;;30.30;2.00;;;30.30;61.40;;;;;;5051435;28;20168;-84
2022/06/12 10:10:49;;;;;;;4.90;2.10;;;30.00;65.60;;;;;;5051625;28;20565;-84
2022/06/12 10:13:28;;;;;;;2.67;1.55;;;30.10;66.80;;;;;;5051039;28;20212;-85
2022/06/12 10:16:02;;;;;;;2.40;1.30;;;29.70;64.80;;;;;;5032795;28;20566;-85
2022/06/12 10:18:42;;;;;;;5.18;1.40;;;29.80;61.20;;;;;;5050588;28;20158;-85
2022/06/12 10:21:16;;;;;;;3.72;1.45;;;29.90;62.10;;;;;;5050626;28;20679;-85
2022/06/12 10:23:42;;;;;;;5.50;1.88;;;29.50;62.00;;;;;;5032958;28;20225;-85
2022/06/12 10:26:20;;;;;;;3.88;1.77;;;29.40;64.80;;;;;;5033221;28;20196;-84
2022/06/12 10:28:46;;;;;;;2.92;1.80;;;29.20;65.30;;;;;;5050732;28;20214;-84
2022/06/12 10:31:18;;;;;;;2.90;1.30;;;29.30;63.60;;;;;;5050854;28;20169;-88
2022/06/12 10:33:47;;;;;;;4.13;1.40;;;29.20;65.20;;;;;;5050472;28;20205;-87
2022/06/12 10:36:33;;;;;;;2.50;1.55;;;29.10;65.00;;;;;;5050912;28;20464;-87
2022/06/12 10:39:17;;;;;;;2.92;1.70;;;29.10;65.30;;;;;;5050976;28;20357;-87
2022/06/12 10:41:43;;;;;;;3.33;1.23;;;29.10;63.10;;;;;;5051032;28;20161;-87
2022/06/12 10:44:35;;;;;;;3.97;1.38;;;28.70;59.30;;;;;;5049957;28;20189;-87
2022/06/12 10:47:16;;;;;;;2.30;1.10;;;28.80;61.10;;;;;;5049357;28;20200;-87
2022/06/12 10:49:42;;;;;;;3.00;1.40;;;28.60;63.70;;;;;;5054023;28;20201;-87
2022/06/12 10:52:16;;;;;;;2.40;1.35;;;28.90;63.30;;;;;;5077762;28;20188;-87
2022/06/12 10:54:41;;;;;;;4.22;1.52;;;29.00;62.20;;;;;;5061976;28;20569;-87
2022/06/12 10:57:16;;;;;;;3.63;1.50;;;29.10;61.60;;;;;;5050371;28;20177;-87
2022/06/12 10:59:46;;;;;;;4.38;1.30;;;29.20;62.50;;;;;;5051537;28;20180;-88
2022/06/12 11:02:20;;;;;;;2.10;1.27;;;29.30;59.90;;;;;;5050353;28;20173;-87
2022/06/12 11:05:07;;;;;;;2.05;1.15;;;29.60;59.70;;;;;;5048534;28;20672;-87
2022/06/12 11:07:58;;;;;;;3.45;1.30;;;29.60;58.40;;;;;;5057517;28;20621;-87
2022/06/12 11:10:43;;;;;;;2.55;0.95;;;29.50;61.50;;;;;;5049808;28;20176;-87
2022/06/12 11:13:46;;;;;;;2.08;1.10;;;29.20;61.40;;;;;;5031603;28;20695;-86
2022/06/12 11:16:34;;;;;;;3.80;1.67;;;29.20;62.70;;;;;;5049581;28;20916;-87
2022/06/12 11:19:21;;;;;;;2.60;1.05;;;28.90;63.30;;;;;;5047958;28;20193;-87
2022/06/12 11:21:53;;;;;;;1.80;0.95;;;28.80;63.60;;;;;;5049683;28;20169;-87
2022/06/12 11:24:23;;;;;;;3.63;1.40;;;29.00;66.90;;;;;;5050332;28;20181;-86
2022/06/12 11:27:02;;;;;;;2.80;1.40;;;28.80;65.50;;;;;;5049621;28;20168;-86
2022/06/12 11:29:49;;;;;;;6.15;1.35;;;28.80;62.90;;;;;;5049593;28;20173;-87
2022/06/12 11:32:36;;;;;;;7.53;2.00;;;28.80;62.50;;;;;;5049421;28;20236;-87
2022/06/12 11:35:07;;;;;;;2.72;1.17;;;28.90;64.40;;;;;;5048316;28;20189;-87
2022/06/12 11:37:54;;;;;;;3.35;1.50;;;29.10;62.50;;;;;;5047788;28;20528;-87
2022/06/12 11:40:39;;;;;;;2.20;1.35;;;29.50;61.80;;;;;;5049279;28;20177;-86
2022/06/12 11:43:25;;;;;;;2.97;1.40;;;29.50;60.20;;;;;;5048824;28;20188;-85
2022/06/12 11:46:01;;;;;;;2.50;1.27;;;29.40;59.40;;;;;;5049367;28;20568;-88
2022/06/12 11:48:55;;;;;;;7.00;1.90;;;29.10;59.40;;;;;;5049089;28;20165;-87
2022/06/12 11:51:23;;;;;;;3.45;0.95;;;29.00;59.00;;;;;;5032969;28;20263;-87
2022/06/12 11:54:13;;;;;;;3.15;1.30;;;29.30;58.60;;;;;;5068892;28;20590;-87
2022/06/12 11:56:44;;;;;;;2.45;1.33;;;29.10;60.30;;;;;;5068801;28;20207;-88
2022/06/12 11:59:23;;;;;;;3.55;1.25;;;29.20;60.40;;;;;;5068858;28;20251;-88
2022/06/12 12:02:13;;;;;;;3.88;1.55;;;29.40;59.10;;;;;;5068255;28;20518;-87
2022/06/12 12:05:13;;;;;;;2.42;1.35;;;29.50;60.30;;;;;;5050441;28;20211;-86
2022/06/12 12:07:55;;;;;;;3.35;1.30;;;29.60;59.80;;;;;;5053374;28;20611;-87
2022/06/12 12:10:45;;;;;;;3.45;1.42;;;29.80;59.20;;;;;;5049114;28;20204;-87
2022/06/12 12:13:18;;;;;;;2.70;1.25;;;29.90;58.50;;;;;;5049009;28;20259;-87
2022/06/12 12:15:56;;;;;;;4.47;1.88;;;30.10;57.50;;;;;;5049230;28;20573;-86
2022/06/12 12:18:43;;;;;;;2.63;1.17;;;30.10;62.50;;;;;;5047444;28;20720;-87
2022/06/12 12:21:14;;;;;;;2.10;1.13;;;29.90;58.60;;;;;;5050657;28;20267;-86
2022/06/12 12:23:45;;;;;;;3.38;1.52;;;29.70;60.10;;;;;;5049488;28;20170;-88
2022/06/12 12:26:25;;;;;;;3.47;1.50;;;29.90;60.40;;;;;;5030930;28;20173;-87
2022/06/12 12:29:06;;;;;;;2.30;1.10;;;30.10;58.30;;;;;;5030368;28;20177;-88
2022/06/12 12:31:33;;;;;;;3.90;1.52;;;30.00;59.80;;;;;;5030769;28;20267;-88
2022/06/12 12:34:04;;;;;;;3.42;1.55;;;30.00;58.30;;;;;;5049223;28;20170;-88
2022/06/12 12:42:34;;;;;;;3.03;1.67;;;29.50;62.50;;;;;;5048828;28;20187;-87
2022/06/12 12:45:19;;;;;;;3.53;1.42;;;29.10;60.80;;;;;;5030179;28;20319;-88
2022/06/12 12:47:44;;;;;;;10.07;1.98;;;28.80;64.70;;;;;;5048106;28;20722;-88
2022/06/12 12:50:17;;;;;;;2.90;1.50;;;28.70;63.00;;;;;;5030682;28;20279;-87
2022/06/12 12:52:55;;;;;;;3.47;1.63;;;28.50;66.60;;;;;;5061046;28;20200;-88
2022/06/12 12:55:42;;;;;;;5.30;2.00;;;28.30;65.80;;;;;;5068689;28;20149;-87
2022/06/12 12:58:17;;;;;;;5.00;1.90;;;28.30;67.20;;;;;;5068405;28;20171;-87
2022/06/12 13:00:43;;;;;;;4.30;2.10;;;28.50;65.20;;;;;;5068297;28;20164;-89
2022/06/12 13:03:26;;;;;;;5.57;1.50;;;28.70;65.90;;;;;;5068369;28;20187;-88
2022/06/12 13:05:51;;;;;;;5.87;2.00;;;28.50;67.00;;;;;;5068167;28;20168;-87
2022/06/12 13:08:38;;;;;;;4.05;1.35;;;28.40;67.70;;;;;;5030606;28;20574;-87
2022/06/12 13:11:13;;;;;;;5.23;1.63;;;28.30;67.60;;;;;;5030412;28;20189;-88
2022/06/12 13:13:55;;;;;;;5.93;2.23;;;28.70;65.00;;;;;;5048083;28;20215;-88
2022/06/12 13:17:00;;;;;;;4.55;1.75;;;28.70;65.70;;;;;;5030058;28;20177;-87
2022/06/12 13:19:42;;;;;;;3.10;1.45;;;28.80;67.70;;;;;;5034174;28;20185;-87
2022/06/12 13:22:49;;;;;;;3.22;1.42;;;28.70;67.20;;;;;;5047998;28;20256;-88
2022/06/12 13:25:20;;;;;;;3.10;1.55;;;28.60;65.10;;;;;;5048460;28;20543;-88
2022/06/12 13:27:55;;;;;;;4.50;1.90;;;28.40;66.70;;;;;;5049082;28;20177;-87
2022/06/12 13:30:27;;;;;;;2.17;1.40;;;28.10;68.30;;;;;;5049067;28;20228;-86
2022/06/12 13:32:53;;;;;;;2.90;1.50;;;27.80;69.30;;;;;;5048137;28;20251;-88
2022/06/12 13:35:46;;;;;;;5.33;2.30;;;27.80;68.30;;;;;;5048711;28;20203;-85
2022/06/12 13:38:19;;;;;;;3.93;1.53;;;28.00;68.20;;;;;;5047633;28;20268;-87
2022/06/12 13:41:00;;;;;;;3.50;1.70;;;27.90;71.50;;;;;;5049476;28;20657;-86